sensor_id;sensor_type;location;lat;lon;timestamp;P1;durP1;ratioP1;P2;durP2;ratioP2
46222;SDS011;31943;51.410;7.564;2022-10-16T00:02:06;3.53;;;1.13;;
46222;SDS011;31943;51.410;7.564;2022-10-16T00:08:38;2.42;;;1.15;;
46222;SDS011;31943;51.410;7.564;2022-10-16T00:27:04;1.33;;;1.00;;
46222;SDS011;31943;51.410;7.564;2022-10-16T00:29:33;2.47;;;0.90;;
46222;SDS011;31943;51.410;7.564;2022-10-16T00:32:06;1.95;;;0.90;;
46222;SDS011;31943;51.410;7.564;2022-10-16T00:35:10;1.95;;;1.00;;
46222;SDS011;31943;51.410;7.564;2022-10-16T00:37:56;1.70;;;1.00;;
46222;SDS011;31943;51.410;7.564;2022-10-16T00:50:22;2.95;;;1.13;;
46222;SDS011;31943;51.410;7.564;2022-10-16T00:55:59;2.47;;;1.02;;
46222;SDS011;31943;51.410;7.564;2022-10-16T01:01:45;2.10;;;0.75;;
46222;SDS011;31943;51.410;7.564;2022-10-16T01:04:17;2.72;;;0.80;;
46222;SDS011;31943;51.410;7.564;2022-10-16T01:07:00;3.42;;;1.00;;
46222;SDS011;31943;51.410;7.564;2022-10-16T01:09:47;3.58;;;1.05;;
46222;SDS011;31943;51.410;7.564;2022-10-16T01:12:22;2.00;;;1.00;;
46222;SDS011;31943;51.410;7.564;2022-10-16T01:15:18;1.58;;;0.90;;
46222;SDS011;31943;51.410;7.564;2022-10-16T01:18:08;1.83;;;0.80;;
46222;SDS011;31943;51.410;7.564;2022-10-16T01:21:02;2.35;;;1.00;;
46222;SDS011;31943;51.410;7.564;2022-10-16T01:39:16;4.00;;;1.10;;
46222;SDS011;31943;51.410;7.564;2022-10-16T01:42:22;2.42;;;1.13;;
46222;SDS011;31943;51.410;7.564;2022-10-16T01:48:14;1.60;;;1.05;;
46222;SDS011;31943;51.410;7.564;2022-10-16T01:54:04;2.70;;;1.38;;
46222;SDS011;31943;51.410;7.564;2022-10-16T01:59:53;3.17;;;1.00;;
46222;SDS011;31943;51.410;7.564;2022-10-16T02:06:10;1.23;;;0.85;;
46222;SDS011;31943;51.410;7.564;2022-10-16T02:11:48;3.25;;;0.98;;
46222;SDS011;31943;51.410;7.564;2022-10-16T02:17:20;1.75;;;1.00;;
46222;SDS011;31943;51.410;7.564;2022-10-16T02:20:09;1.50;;;1.00;;
46222;SDS011;31943;51.410;7.564;2022-10-16T02:22:45;2.63;;;1.00;;
46222;SDS011;31943;51.410;7.564;2022-10-16T02:25:51;2.92;;;1.10;;
46222;SDS011;31943;51.410;7.564;2022-10-16T02:28:46;3.25;;;1.00;;
46222;SDS011;31943;51.410;7.564;2022-10-16T02:32:03;1.45;;;1.13;;
46222;SDS011;31943;51.410;7.564;2022-10-16T02:34:46;3.95;;;0.95;;
46222;SDS011;31943;51.410;7.564;2022-10-16T02:37:52;1.63;;;0.90;;
46222;SDS011;31943;51.410;7.564;2022-10-16T02:40:44;2.00;;;1.30;;
46222;SDS011;31943;51.410;7.564;2022-10-16T02:49:36;2.92;;;1.05;;
46222;SDS011;31943;51.410;7.564;2022-10-16T02:52:15;2.65;;;1.17;;
46222;SDS011;31943;51.410;7.564;2022-10-16T02:54:54;1.42;;;1.00;;
46222;SDS011;31943;51.410;7.564;2022-10-16T02:58:04;1.80;;;0.83;;
46222;SDS011;31943;51.410;7.564;2022-10-16T03:04:41;1.85;;;1.10;;
46222;SDS011;31943;51.410;7.564;2022-10-16T03:11:23;1.15;;;0.85;;
46222;SDS011;31943;51.410;7.564;2022-10-16T03:16:57;1.20;;;1.05;;
46222;SDS011;31943;51.410;7.564;2022-10-16T03:19:36;1.77;;;0.93;;
46222;SDS011;31943;51.410;7.564;2022-10-16T03:25:27;3.00;;;1.00;;
46222;SDS011;31943;51.410;7.564;2022-10-16T03:28:02;2.42;;;0.85;;
46222;SDS011;31943;51.410;7.564;2022-10-16T03:30:52;1.48;;;0.65;;
46222;SDS011;31943;51.410;7.564;2022-10-16T03:33:39;0.90;;;0.65;;
46222;SDS011;31943;51.410;7.564;2022-10-16T03:36:42;1.40;;;0.90;;
46222;SDS011;31943;51.410;7.564;2022-10-16T03:42:30;1.67;;;0.88;;
46222;SDS011;31943;51.410;7.564;2022-10-16T03:45:14;3.13;;;0.88;;
46222;SDS011;31943;51.410;7.564;2022-10-16T03:47:45;2.35;;;0.75;;
46222;SDS011;31943;51.410;7.564;2022-10-16T03:50:34;2.00;;;0.77;;
46222;SDS011;31943;51.410;7.564;2022-10-16T03:53:01;1.25;;;0.80;;
46222;SDS011;31943;51.410;7.564;2022-10-16T03:55:48;0.88;;;0.60;;
46222;SDS011;31943;51.410;7.564;2022-10-16T03:58:48;1.80;;;0.75;;
46222;SDS011;31943;51.410;7.564;2022-10-16T04:01:38;0.93;;;0.60;;
46222;SDS011;31943;51.410;7.564;2022-10-16T04:04:07;2.30;;;0.80;;
46222;SDS011;31943;51.410;7.564;2022-10-16T04:06:42;0.88;;;0.70;;
46222;SDS011;31943;51.410;7.564;2022-10-16T04:09:14;2.38;;;0.80;;
46222;SDS011;31943;51.410;7.564;2022-10-16T04:14:32;1.00;;;0.70;;
46222;SDS011;31943;51.410;7.564;2022-10-16T04:16:59;4.85;;;1.05;;
46222;SDS011;31943;51.410;7.564;2022-10-16T05:08:59;1.13;;;0.60;;
46222;SDS011;31943;51.410;7.564;2022-10-16T05:11:25;0.80;;;0.55;;
46222;SDS011;31943;51.410;7.564;2022-10-16T05:14:10;1.98;;;0.65;;
46222;SDS011;31943;51.410;7.564;2022-10-16T05:17:06;0.60;;;0.50;;
46222;SDS011;31943;51.410;7.564;2022-10-16T06:10:19;1.52;;;0.60;;
46222;SDS011;31943;51.410;7.564;2022-10-16T06:12:45;1.40;;;0.60;;
46222;SDS011;31943;51.410;7.564;2022-10-16T06:15:11;3.15;;;0.70;;
46222;SDS011;31943;51.410;7.564;2022-10-16T06:17:36;2.65;;;0.65;;
46222;SDS011;31943;51.410;7.564;2022-10-16T06:20:04;1.88;;;0.65;;
46222;SDS011;31943;51.410;7.564;2022-10-16T06:22:31;1.52;;;0.70;;
46222;SDS011;31943;51.410;7.564;2022-10-16T06:24:57;2.35;;;0.50;;
46222;SDS011;31943;51.410;7.564;2022-10-16T06:27:23;0.95;;;0.52;;
46222;SDS011;31943;51.410;7.564;2022-10-16T06:29:50;0.77;;;0.52;;
46222;SDS011;31943;51.410;7.564;2022-10-16T06:32:16;1.52;;;0.40;;
46222;SDS011;31943;51.410;7.564;2022-10-16T06:34:42;0.80;;;0.60;;
46222;SDS011;31943;51.410;7.564;2022-10-16T06:37:09;3.17;;;0.70;;
46222;SDS011;31943;51.410;7.564;2022-10-16T06:39:37;2.10;;;0.60;;
46222;SDS011;31943;51.410;7.564;2022-10-16T06:42:03;1.08;;;0.40;;
46222;SDS011;31943;51.410;7.564;2022-10-16T06:44:28;0.60;;;0.50;;
46222;SDS011;31943;51.410;7.564;2022-10-16T06:46:54;1.35;;;0.57;;
46222;SDS011;31943;51.410;7.564;2022-10-16T06:49:20;1.30;;;0.47;;
46222;SDS011;31943;51.410;7.564;2022-10-16T06:51:46;3.58;;;0.77;;
46222;SDS011;31943;51.410;7.564;2022-10-16T06:54:14;2.05;;;0.50;;
46222;SDS011;31943;51.410;7.564;2022-10-16T06:56:40;1.95;;;0.75;;
46222;SDS011;31943;51.410;7.564;2022-10-16T06:59:07;1.25;;;0.65;;
46222;SDS011;31943;51.410;7.564;2022-10-16T07:01:33;3.25;;;0.60;;
46222;SDS011;31943;51.410;7.564;2022-10-16T07:04:00;0.95;;;0.70;;
46222;SDS011;31943;51.410;7.564;2022-10-16T07:06:30;0.70;;;0.50;;
46222;SDS011;31943;51.410;7.564;2022-10-16T07:08:57;2.60;;;0.60;;
46222;SDS011;31943;51.410;7.564;2022-10-16T07:11:29;0.40;;;0.40;;
46222;SDS011;31943;51.410;7.564;2022-10-16T07:13:55;1.15;;;0.60;;
46222;SDS011;31943;51.410;7.564;2022-10-16T07:16:23;1.80;;;0.68;;
46222;SDS011;31943;51.410;7.564;2022-10-16T07:18:50;1.33;;;0.60;;
46222;SDS011;31943;51.410;7.564;2022-10-16T07:21:17;1.35;;;0.60;;
46222;SDS011;31943;51.410;7.564;2022-10-16T07:23:44;0.63;;;0.50;;
46222;SDS011;31943;51.410;7.564;2022-10-16T07:26:10;1.92;;;0.50;;
46222;SDS011;31943;51.410;7.564;2022-10-16T07:28:38;0.73;;;0.60;;
46222;SDS011;31943;51.410;7.564;2022-10-16T07:31:04;1.23;;;0.45;;
46222;SDS011;31943;51.410;7.564;2022-10-16T07:33:32;0.75;;;0.60;;
46222;SDS011;31943;51.410;7.564;2022-10-16T07:35:59;2.45;;;0.52;;
46222;SDS011;31943;51.410;7.564;2022-10-16T07:38:25;2.10;;;0.80;;
46222;SDS011;31943;51.410;7.564;2022-10-16T07:40:55;1.63;;;0.60;;
46222;SDS011;31943;51.410;7.564;2022-10-16T07:43:22;1.75;;;0.60;;
46222;SDS011;31943;51.410;7.564;2022-10-16T07:45:50;1.40;;;0.70;;
46222;SDS011;31943;51.410;7.564;2022-10-16T07:48:16;3.53;;;0.75;;
46222;SDS011;31943;51.410;7.564;2022-10-16T07:50:43;1.90;;;0.60;;
46222;SDS011;31943;51.410;7.564;2022-10-16T07:53:12;2.15;;;0.80;;
46222;SDS011;31943;51.410;7.564;2022-10-16T07:55:38;2.38;;;1.08;;
46222;SDS011;31943;51.410;7.564;2022-10-16T07:58:04;0.82;;;0.52;;
46222;SDS011;31943;51.410;7.564;2022-10-16T08:00:31;1.75;;;0.77;;
46222;SDS011;31943;51.410;7.564;2022-10-16T08:02:59;1.23;;;0.80;;
46222;SDS011;31943;51.410;7.564;2022-10-16T08:05:26;2.45;;;0.68;;
46222;SDS011;31943;51.410;7.564;2022-10-16T08:07:52;2.40;;;0.70;;
46222;SDS011;31943;51.410;7.564;2022-10-16T08:10:20;2.03;;;0.82;;
46222;SDS011;31943;51.410;7.564;2022-10-16T08:12:48;1.33;;;0.70;;
46222;SDS011;31943;51.410;7.564;2022-10-16T08:15:15;2.50;;;0.90;;
46222;SDS011;31943;51.410;7.564;2022-10-16T08:17:41;1.40;;;0.90;;
46222;SDS011;31943;51.410;7.564;2022-10-16T08:20:12;1.23;;;0.70;;
46222;SDS011;31943;51.410;7.564;2022-10-16T08:22:38;3.67;;;0.80;;
46222;SDS011;31943;51.410;7.564;2022-10-16T08:25:05;1.48;;;1.00;;
46222;SDS011;31943;51.410;7.564;2022-10-16T08:27:32;3.25;;;1.10;;
46222;SDS011;31943;51.410;7.564;2022-10-16T08:29:58;1.67;;;0.88;;
46222;SDS011;31943;51.410;7.564;2022-10-16T08:32:24;1.48;;;0.85;;
46222;SDS011;31943;51.410;7.564;2022-10-16T08:34:50;1.95;;;1.00;;
46222;SDS011;31943;51.410;7.564;2022-10-16T08:37:18;1.58;;;1.00;;
46222;SDS011;31943;51.410;7.564;2022-10-16T08:39:44;0.77;;;0.77;;
46222;SDS011;31943;51.410;7.564;2022-10-16T08:42:12;3.67;;;1.10;;
46222;SDS011;31943;51.410;7.564;2022-10-16T08:47:55;2.42;;;0.90;;
46222;SDS011;31943;51.410;7.564;2022-10-16T08:50:31;2.88;;;0.90;;
46222;SDS011;31943;51.410;7.564;2022-10-16T08:53:05;1.13;;;0.80;;
46222;SDS011;31943;51.410;7.564;2022-10-16T08:55:33;1.42;;;0.80;;
46222;SDS011;31943;51.410;7.564;2022-10-16T08:58:10;3.65;;;1.17;;
46222;SDS011;31943;51.410;7.564;2022-10-16T09:00:40;2.85;;;0.95;;
46222;SDS011;31943;51.410;7.564;2022-10-16T09:03:11;2.13;;;0.70;;
46222;SDS011;31943;51.410;7.564;2022-10-16T09:05:57;4.90;;;0.80;;
46222;SDS011;31943;51.410;7.564;2022-10-16T09:08:37;3.58;;;0.70;;
46222;SDS011;31943;51.410;7.564;2022-10-16T09:11:12;3.58;;;1.02;;
46222;SDS011;31943;51.410;7.564;2022-10-16T09:22:32;3.63;;;0.70;;
46222;SDS011;31943;51.410;7.564;2022-10-16T09:43:01;2.47;;;0.70;;
46222;SDS011;31943;51.410;7.564;2022-10-16T09:45:52;3.30;;;0.85;;
46222;SDS011;31943;51.410;7.564;2022-10-16T10:08:58;1.25;;;0.47;;
46222;SDS011;31943;51.410;7.564;2022-10-16T10:11:38;1.20;;;0.40;;
46222;SDS011;31943;51.410;7.564;2022-10-16T10:14:25;3.75;;;1.05;;
46222;SDS011;31943;51.410;7.564;2022-10-16T10:17:28;1.48;;;0.50;;
46222;SDS011;31943;51.410;7.564;2022-10-16T10:20:22;1.08;;;0.63;;
46222;SDS011;31943;51.410;7.564;2022-10-16T10:22:51;2.28;;;0.70;;
46222;SDS011;31943;51.410;7.564;2022-10-16T10:31:58;2.53;;;1.00;;
46222;SDS011;31943;51.410;7.564;2022-10-16T10:34:44;2.40;;;0.85;;
46222;SDS011;31943;51.410;7.564;2022-10-16T10:37:32;4.38;;;0.73;;
46222;SDS011;31943;51.410;7.564;2022-10-16T10:40:27;3.90;;;0.60;;
46222;SDS011;31943;51.410;7.564;2022-10-16T10:43:16;2.47;;;0.57;;
46222;SDS011;31943;51.410;7.564;2022-10-16T10:46:17;3.47;;;0.73;;
46222;SDS011;31943;51.410;7.564;2022-10-16T10:55:36;4.10;;;0.90;;
46222;SDS011;31943;51.410;7.564;2022-10-16T10:58:34;1.33;;;0.45;;
46222;SDS011;31943;51.410;7.564;2022-10-16T11:01:22;2.42;;;0.60;;
46222;SDS011;31943;51.410;7.564;2022-10-16T11:13:43;1.50;;;0.50;;
46222;SDS011;31943;51.410;7.564;2022-10-16T11:19:54;1.77;;;0.40;;
46222;SDS011;31943;51.410;7.564;2022-10-16T11:25:29;2.47;;;0.55;;
46222;SDS011;31943;51.410;7.564;2022-10-16T11:27:58;1.92;;;0.68;;
46222;SDS011;31943;51.410;7.564;2022-10-16T11:34:06;1.45;;;0.50;;
46222;SDS011;31943;51.410;7.564;2022-10-16T11:39:18;1.00;;;0.47;;
46222;SDS011;31943;51.410;7.564;2022-10-16T11:45:13;3.47;;;0.65;;
46222;SDS011;31943;51.410;7.564;2022-10-16T11:50:26;2.58;;;0.60;;
46222;SDS011;31943;51.410;7.564;2022-10-16T11:57:02;1.00;;;0.50;;
46222;SDS011;31943;51.410;7.564;2022-10-16T11:59:54;2.90;;;0.70;;
46222;SDS011;31943;51.410;7.564;2022-10-16T12:02:32;1.13;;;0.50;;
46222;SDS011;31943;51.410;7.564;2022-10-16T12:05:17;1.38;;;0.50;;
46222;SDS011;31943;51.410;7.564;2022-10-16T12:14:37;1.10;;;0.40;;
46222;SDS011;31943;51.410;7.564;2022-10-16T12:19:59;2.65;;;0.80;;
46222;SDS011;31943;51.410;7.564;2022-10-16T12:22:47;0.93;;;0.40;;
46222;SDS011;31943;51.410;7.564;2022-10-16T12:28:54;1.33;;;0.32;;
46222;SDS011;31943;51.410;7.564;2022-10-16T12:31:42;0.77;;;0.40;;
46222;SDS011;31943;51.410;7.564;2022-10-16T12:53:02;1.52;;;0.30;;
46222;SDS011;31943;51.410;7.564;2022-10-16T12:55:51;2.00;;;0.50;;
46222;SDS011;31943;51.410;7.564;2022-10-16T12:59:24;0.25;;;0.20;;
46222;SDS011;31943;51.410;7.564;2022-10-16T13:02:23;3.17;;;0.40;;
46222;SDS011;31943;51.410;7.564;2022-10-16T13:05:29;0.73;;;0.30;;
46222;SDS011;31943;51.410;7.564;2022-10-16T13:11:21;0.55;;;0.30;;
46222;SDS011;31943;51.410;7.564;2022-10-16T13:14:07;3.65;;;0.60;;
46222;SDS011;31943;51.410;7.564;2022-10-16T13:46:20;1.40;;;0.60;;
46222;SDS011;31943;51.410;7.564;2022-10-16T13:51:54;1.50;;;0.20;;
46222;SDS011;31943;51.410;7.564;2022-10-16T13:54:22;1.38;;;0.30;;
46222;SDS011;31943;51.410;7.564;2022-10-16T14:00:40;0.95;;;0.25;;
46222;SDS011;31943;51.410;7.564;2022-10-16T14:09:20;0.73;;;0.30;;
46222;SDS011;31943;51.410;7.564;2022-10-16T14:32:02;1.45;;;0.30;;
46222;SDS011;31943;51.410;7.564;2022-10-16T14:34:52;2.40;;;0.55;;
46222;SDS011;31943;51.410;7.564;2022-10-16T14:37:32;2.13;;;0.40;;
46222;SDS011;31943;51.410;7.564;2022-10-16T14:40:29;0.77;;;0.30;;
46222;SDS011;31943;51.410;7.564;2022-10-16T14:54:41;0.95;;;0.35;;
46222;SDS011;31943;51.410;7.564;2022-10-16T14:59:58;2.53;;;0.50;;
46222;SDS011;31943;51.410;7.564;2022-10-16T16:34:22;1.83;;;0.60;;
46222;SDS011;31943;51.410;7.564;2022-10-16T16:39:59;2.35;;;0.60;;
46222;SDS011;31943;51.410;7.564;2022-10-16T16:42:44;3.05;;;0.40;;
46222;SDS011;31943;51.410;7.564;2022-10-16T17:51:18;2.28;;;0.80;;
46222;SDS011;31943;51.410;7.564;2022-10-16T17:56:48;3.87;;;0.70;;
46222;SDS011;31943;51.410;7.564;2022-10-16T18:10:43;5.90;;;0.73;;
46222;SDS011;31943;51.410;7.564;2022-10-16T18:14:20;8.48;;;0.73;;
46222;SDS011;31943;51.410;7.564;2022-10-16T18:20:09;7.30;;;0.77;;
46222;SDS011;31943;51.410;7.564;2022-10-16T18:22:37;1.05;;;0.50;;
46222;SDS011;31943;51.410;7.564;2022-10-16T18:25:04;3.65;;;0.77;;
46222;SDS011;31943;51.410;7.564;2022-10-16T18:27:32;4.82;;;0.70;;
46222;SDS011;31943;51.410;7.564;2022-10-16T18:29:59;2.03;;;0.75;;
46222;SDS011;31943;51.410;7.564;2022-10-16T18:32:25;3.53;;;0.80;;
46222;SDS011;31943;51.410;7.564;2022-10-16T18:34:51;5.63;;;0.77;;
46222;SDS011;31943;51.410;7.564;2022-10-16T18:37:17;5.93;;;0.98;;
46222;SDS011;31943;51.410;7.564;2022-10-16T18:39:45;6.07;;;0.90;;
46222;SDS011;31943;51.410;7.564;2022-10-16T18:42:11;1.88;;;0.80;;
46222;SDS011;31943;51.410;7.564;2022-10-16T18:44:39;4.45;;;1.08;;
46222;SDS011;31943;51.410;7.564;2022-10-16T18:47:05;3.25;;;0.80;;
46222;SDS011;31943;51.410;7.564;2022-10-16T18:49:31;1.80;;;0.70;;
46222;SDS011;31943;51.410;7.564;2022-10-16T18:51:57;4.53;;;0.88;;
46222;SDS011;31943;51.410;7.564;2022-10-16T18:54:24;3.03;;;0.70;;
46222;SDS011;31943;51.410;7.564;2022-10-16T18:56:52;4.65;;;0.90;;
46222;SDS011;31943;51.410;7.564;2022-10-16T18:59:18;1.42;;;0.60;;
46222;SDS011;31943;51.410;7.564;2022-10-16T19:01:47;3.67;;;1.05;;
46222;SDS011;31943;51.410;7.564;2022-10-16T19:04:14;2.90;;;0.63;;
46222;SDS011;31943;51.410;7.564;2022-10-16T19:06:42;1.73;;;0.80;;
46222;SDS011;31943;51.410;7.564;2022-10-16T19:09:12;3.00;;;0.90;;
46222;SDS011;31943;51.410;7.564;2022-10-16T19:11:39;2.45;;;0.82;;
46222;SDS011;31943;51.410;7.564;2022-10-16T19:14:06;7.28;;;1.13;;
46222;SDS011;31943;51.410;7.564;2022-10-16T19:16:34;1.02;;;0.50;;
46222;SDS011;31943;51.410;7.564;2022-10-16T19:19:05;2.90;;;0.80;;
46222;SDS011;31943;51.410;7.564;2022-10-16T19:24:00;5.03;;;1.15;;
46222;SDS011;31943;51.410;7.564;2022-10-16T19:26:27;1.80;;;1.00;;
46222;SDS011;31943;51.410;7.564;2022-10-16T19:28:55;9.18;;;4.50;;
46222;SDS011;31943;51.410;7.564;2022-10-16T19:31:23;5.65;;;4.40;;
46222;SDS011;31943;51.410;7.564;2022-10-16T19:33:50;10.57;;;5.00;;
46222;SDS011;31943;51.410;7.564;2022-10-16T19:36:20;4.72;;;4.13;;
46222;SDS011;31943;51.410;7.564;2022-10-16T19:38:51;6.13;;;3.33;;
46222;SDS011;31943;51.410;7.564;2022-10-16T19:41:18;5.57;;;4.13;;
46222;SDS011;31943;51.410;7.564;2022-10-16T19:43:44;5.07;;;3.13;;
46222;SDS011;31943;51.410;7.564;2022-10-16T19:46:11;7.32;;;2.90;;
46222;SDS011;31943;51.410;7.564;2022-10-16T20:12:35;2.45;;;1.90;;
46222;SDS011;31943;51.410;7.564;2022-10-16T20:15:27;5.03;;;1.80;;
46222;SDS011;31943;51.410;7.564;2022-10-16T20:18:22;1.95;;;1.73;;
46222;SDS011;31943;51.410;7.564;2022-10-16T20:20:53;4.90;;;1.60;;
46222;SDS011;31943;51.410;7.564;2022-10-16T20:27:01;4.47;;;1.95;;
46222;SDS011;31943;51.410;7.564;2022-10-16T20:36:41;4.53;;;1.90;;
46222;SDS011;31943;51.410;7.564;2022-10-16T20:39:09;3.15;;;1.80;;
46222;SDS011;31943;51.410;7.564;2022-10-16T20:41:51;6.90;;;2.33;;
46222;SDS011;31943;51.410;7.564;2022-10-16T20:45:03;4.20;;;1.88;;
46222;SDS011;31943;51.410;7.564;2022-10-16T20:47:31;1.70;;;1.50;;
46222;SDS011;31943;51.410;7.564;2022-10-16T20:49:59;3.42;;;1.70;;
46222;SDS011;31943;51.410;7.564;2022-10-16T20:58:12;2.55;;;0.98;;
46222;SDS011;31943;51.410;7.564;2022-10-16T21:01:02;2.72;;;1.10;;
46222;SDS011;31943;51.410;7.564;2022-10-16T21:06:23;4.18;;;1.80;;
46222;SDS011;31943;51.410;7.564;2022-10-16T21:09:00;4.55;;;2.03;;
46222;SDS011;31943;51.410;7.564;2022-10-16T21:11:40;3.08;;;1.10;;
46222;SDS011;31943;51.410;7.564;2022-10-16T21:14:14;4.70;;;1.50;;
46222;SDS011;31943;51.410;7.564;2022-10-16T21:16:47;2.33;;;1.15;;
46222;SDS011;31943;51.410;7.564;2022-10-16T21:19:13;1.38;;;1.05;;
46222;SDS011;31943;51.410;7.564;2022-10-16T21:22:05;4.70;;;1.20;;
46222;SDS011;31943;51.410;7.564;2022-10-16T21:24:36;2.90;;;1.05;;
46222;SDS011;31943;51.410;7.564;2022-10-16T21:27:13;3.70;;;1.20;;
46222;SDS011;31943;51.410;7.564;2022-10-16T21:30:15;2.58;;;1.10;;
46222;SDS011;31943;51.410;7.564;2022-10-16T21:32:42;4.13;;;1.20;;
46222;SDS011;31943;51.410;7.564;2022-10-16T21:35:09;2.35;;;0.98;;
46222;SDS011;31943;51.410;7.564;2022-10-16T21:37:40;5.05;;;1.30;;
46222;SDS011;31943;51.410;7.564;2022-10-16T21:40:23;5.70;;;1.13;;
46222;SDS011;31943;51.410;7.564;2022-10-16T21:45:45;5.00;;;1.13;;
46222;SDS011;31943;51.410;7.564;2022-10-16T21:48:12;5.88;;;1.15;;
46222;SDS011;31943;51.410;7.564;2022-10-16T21:50:54;7.85;;;1.00;;
46222;SDS011;31943;51.410;7.564;2022-10-16T21:53:24;3.15;;;1.15;;
46222;SDS011;31943;51.410;7.564;2022-10-16T21:55:51;3.25;;;1.30;;
46222;SDS011;31943;51.410;7.564;2022-10-16T21:58:35;3.35;;;0.90;;
46222;SDS011;31943;51.410;7.564;2022-10-16T22:01:07;2.45;;;0.90;;
46222;SDS011;31943;51.410;7.564;2022-10-16T22:03:36;8.10;;;1.40;;
46222;SDS011;31943;51.410;7.564;2022-10-16T22:06:04;5.82;;;2.35;;
46222;SDS011;31943;51.410;7.564;2022-10-16T22:08:44;2.08;;;1.70;;
46222;SDS011;31943;51.410;7.564;2022-10-16T22:11:27;5.20;;;1.88;;
46222;SDS011;31943;51.410;7.564;2022-10-16T22:14:10;3.00;;;1.40;;
46222;SDS011;31943;51.410;7.564;2022-10-16T22:16:39;3.38;;;1.55;;
46222;SDS011;31943;51.410;7.564;2022-10-16T22:26:44;5.63;;;1.08;;
46222;SDS011;31943;51.410;7.564;2022-10-16T22:29:34;2.55;;;1.77;;
46222;SDS011;31943;51.410;7.564;2022-10-16T22:32:02;3.20;;;1.25;;
46222;SDS011;31943;51.410;7.564;2022-10-16T22:34:34;4.40;;;1.58;;
46222;SDS011;31943;51.410;7.564;2022-10-16T22:36:59;3.25;;;1.85;;
46222;SDS011;31943;51.410;7.564;2022-10-16T22:39:27;6.53;;;1.70;;
46222;SDS011;31943;51.410;7.564;2022-10-16T22:41:58;5.50;;;1.50;;
46222;SDS011;31943;51.410;7.564;2022-10-16T22:44:24;3.95;;;1.55;;
46222;SDS011;31943;51.410;7.564;2022-10-16T22:47:15;2.28;;;1.15;;
46222;SDS011;31943;51.410;7.564;2022-10-16T22:52:10;3.47;;;1.67;;
46222;SDS011;31943;51.410;7.564;2022-10-16T22:54:40;5.70;;;1.60;;
46222;SDS011;31943;51.410;7.564;2022-10-16T22:57:20;2.53;;;1.30;;
46222;SDS011;31943;51.410;7.564;2022-10-16T23:00:10;3.33;;;1.27;;
46222;SDS011;31943;51.410;7.564;2022-10-16T23:02:45;4.78;;;1.20;;
46222;SDS011;31943;51.410;7.564;2022-10-16T23:05:21;3.80;;;1.42;;
46222;SDS011;31943;51.410;7.564;2022-10-16T23:07:49;2.25;;;1.23;;
46222;SDS011;31943;51.410;7.564;2022-10-16T23:10:16;2.47;;;1.30;;
46222;SDS011;31943;51.410;7.564;2022-10-16T23:12:57;6.60;;;1.42;;
46222;SDS011;31943;51.410;7.564;2022-10-16T23:21:25;4.32;;;1.40;;
46222;SDS011;31943;51.410;7.564;2022-10-16T23:23:52;5.28;;;1.67;;
46222;SDS011;31943;51.410;7.564;2022-10-16T23:26:23;4.82;;;1.40;;
46222;SDS011;31943;51.410;7.564;2022-10-16T23:28:58;3.22;;;1.55;;
46222;SDS011;31943;51.410;7.564;2022-10-16T23:39:38;3.33;;;1.60;;
46222;SDS011;31943;51.410;7.564;2022-10-16T23:42:05;6.15;;;1.40;;
46222;SDS011;31943;51.410;7.564;2022-10-16T23:44:31;6.32;;;1.58;;
46222;SDS011;31943;51.410;7.564;2022-10-16T23:47:04;4.05;;;1.42;;
46222;SDS011;31943;51.410;7.564;2022-10-16T23:52:26;2.65;;;1.52;;
46222;SDS011;31943;51.410;7.564;2022-10-16T23:54:53;3.28;;;1.85;;
46222;SDS011;31943;51.410;7.564;2022-10-16T23:57:51;3.88;;;1.83;;
